sensor_id;sensor_type;location;lat;lon;timestamp;pressure;altitude;pressure_sealevel;temperature;humidity
39075;BME280;24826;52.070;20.970;2023-04-03T00:02:02;61420.53;;;-147.04;55.31
39075;BME280;24826;52.070;20.970;2023-04-03T00:04:46;61386.72;;;-147.04;56.18
39075;BME280;24826;52.070;20.970;2023-04-03T00:07:31;61430.47;;;-147.04;56.77
39075;BME280;24826;52.070;20.970;2023-04-03T00:10:15;61390.72;;;-147.04;56.08
39075;BME280;24826;52.070;20.970;2023-04-03T00:13:00;61426.50;;;-147.04;55.58
39075;BME280;24826;52.070;20.970;2023-04-03T00:15:44;61446.38;;;-147.04;55.91
39075;BME280;24826;52.070;20.970;2023-04-03T00:18:29;61404.63;;;-147.04;56.60
39075;BME280;24826;52.070;20.970;2023-04-03T00:21:13;61412.56;;;-147.04;55.24
39075;BME280;24826;52.070;20.970;2023-04-03T00:23:58;61422.53;;;-147.04;55.11
39075;BME280;24826;52.070;20.970;2023-04-03T00:26:42;61400.66;;;-147.04;54.71
39075;BME280;24826;52.070;20.970;2023-04-03T00:29:27;61424.50;;;-147.04;54.75
39075;BME280;24826;52.070;20.970;2023-04-03T00:32:12;61404.63;;;-147.04;54.51
39075;BME280;24826;52.070;20.970;2023-04-03T00:34:56;61420.53;;;-147.04;54.32
39075;BME280;24826;52.070;20.970;2023-04-03T00:37:41;61440.41;;;-147.04;54.20
39075;BME280;24826;52.070;20.970;2023-04-03T00:40:27;61414.56;;;-147.04;54.37
39075;BME280;24826;52.070;20.970;2023-04-03T00:43:19;61426.50;;;-147.04;54.55
39075;BME280;24826;52.070;20.970;2023-04-03T00:46:05;61454.34;;;-147.04;53.58
39075;BME280;24826;52.070;20.970;2023-04-03T00:48:49;61426.50;;;-147.04;53.96
39075;BME280;24826;52.070;20.970;2023-04-03T00:51:35;61444.41;;;-147.04;53.98
39075;BME280;24826;52.070;20.970;2023-04-03T00:54:19;61448.38;;;-147.04;53.42
39075;BME280;24826;52.070;20.970;2023-04-03T00:57:05;61424.50;;;-147.04;53.79
39075;BME280;24826;52.070;20.970;2023-04-03T00:59:55;61424.50;;;-147.04;53.84
39075;BME280;24826;52.070;20.970;2023-04-03T01:02:41;61436.44;;;-147.04;53.79
39075;BME280;24826;52.070;20.970;2023-04-03T01:05:25;61416.56;;;-147.04;54.00
39075;BME280;24826;52.070;20.970;2023-04-03T01:08:10;61396.66;;;-147.04;53.66
39075;BME280;24826;52.070;20.970;2023-04-03T01:10:54;61428.47;;;-147.04;53.30
39075;BME280;24826;52.070;20.970;2023-04-03T01:13:39;61420.53;;;-147.04;52.83
39075;BME280;24826;52.070;20.970;2023-04-03T01:16:24;61400.66;;;-147.04;52.17
39075;BME280;24826;52.070;20.970;2023-04-03T01:19:15;61392.69;;;-147.04;52.96
39075;BME280;24826;52.070;20.970;2023-04-03T01:22:17;61426.50;;;-147.04;53.81
39075;BME280;24826;52.070;20.970;2023-04-03T01:25:03;61414.56;;;-147.04;53.22
39075;BME280;24826;52.070;20.970;2023-04-03T01:27:47;61420.53;;;-147.04;52.67
39075;BME280;24826;52.070;20.970;2023-04-03T01:30:34;61408.59;;;-147.04;52.64
39075;BME280;24826;52.070;20.970;2023-04-03T01:33:20;61420.53;;;-147.04;52.38
39075;BME280;24826;52.070;20.970;2023-04-03T01:36:05;61406.63;;;-147.04;52.36
39075;BME280;24826;52.070;20.970;2023-04-03T01:38:50;61400.66;;;-147.04;52.52
39075;BME280;24826;52.070;20.970;2023-04-03T01:41:34;61490.13;;;-147.04;53.17
39075;BME280;24826;52.070;20.970;2023-04-03T01:44:19;61394.69;;;-147.04;52.51
39075;BME280;24826;52.070;20.970;2023-04-03T01:47:06;61424.50;;;-147.04;52.86
39075;BME280;24826;52.070;20.970;2023-04-03T01:49:50;61440.41;;;-147.04;52.25
39075;BME280;24826;52.070;20.970;2023-04-03T01:52:35;61440.41;;;-147.04;52.02
39075;BME280;24826;52.070;20.970;2023-04-03T01:55:19;61400.66;;;-147.04;52.86
39075;BME280;24826;52.070;20.970;2023-04-03T01:58:04;61390.72;;;-147.04;52.09
39075;BME280;24826;52.070;20.970;2023-04-03T02:00:49;61424.50;;;-147.04;51.90
39075;BME280;24826;52.070;20.970;2023-04-03T02:03:33;61420.53;;;-147.04;52.49
39075;BME280;24826;52.070;20.970;2023-04-03T02:06:17;61420.53;;;-147.04;53.30
39075;BME280;24826;52.070;20.970;2023-04-03T02:09:03;61581.59;;;-147.04;52.85
39075;BME280;24826;52.070;20.970;2023-04-03T02:11:47;61362.88;;;-147.04;52.78
39075;BME280;24826;52.070;20.970;2023-04-03T02:14:32;61432.47;;;-147.04;52.61
39075;BME280;24826;52.070;20.970;2023-04-03T02:17:16;61420.53;;;-147.04;52.63
39075;BME280;24826;52.070;20.970;2023-04-03T02:20:02;61438.44;;;-147.04;53.10
39075;BME280;24826;52.070;20.970;2023-04-03T02:22:47;61418.53;;;-147.04;52.82
39075;BME280;24826;52.070;20.970;2023-04-03T02:25:32;61404.63;;;-147.04;52.89
39075;BME280;24826;52.070;20.970;2023-04-03T02:28:17;61414.56;;;-147.04;52.96
39075;BME280;24826;52.070;20.970;2023-04-03T02:31:02;61448.38;;;-147.04;52.90
39075;BME280;24826;52.070;20.970;2023-04-03T02:33:47;61428.47;;;-147.04;51.95
39075;BME280;24826;52.070;20.970;2023-04-03T02:36:31;61605.47;;;-147.04;53.19
39075;BME280;24826;52.070;20.970;2023-04-03T02:39:15;61438.44;;;-147.04;52.14
39075;BME280;24826;52.070;20.970;2023-04-03T02:42:00;61416.56;;;-147.04;52.45
39075;BME280;24826;52.070;20.970;2023-04-03T02:44:44;61452.34;;;-147.04;52.75
39075;BME280;24826;52.070;20.970;2023-04-03T02:47:29;61454.34;;;-147.04;52.96
39075;BME280;24826;52.070;20.970;2023-04-03T02:50:14;61444.41;;;-147.04;53.74
39075;BME280;24826;52.070;20.970;2023-04-03T02:52:59;61623.34;;;-147.04;53.48
39075;BME280;24826;52.070;20.970;2023-04-03T02:55:44;61424.50;;;-147.04;53.43
39075;BME280;24826;52.070;20.970;2023-04-03T02:58:29;61436.44;;;-147.04;53.40
39075;BME280;24826;52.070;20.970;2023-04-03T03:01:14;61440.41;;;-147.04;53.48
39075;BME280;24826;52.070;20.970;2023-04-03T03:03:59;61428.47;;;-147.04;52.90
39075;BME280;24826;52.070;20.970;2023-04-03T03:06:44;61525.91;;;-147.04;53.56
39075;BME280;24826;52.070;20.970;2023-04-03T03:09:29;61434.44;;;-147.04;53.69
39075;BME280;24826;52.070;20.970;2023-04-03T03:12:14;61364.84;;;-147.04;54.14
39075;BME280;24826;52.070;20.970;2023-04-03T03:14:58;61458.31;;;-147.04;54.36
39075;BME280;24826;52.070;20.970;2023-04-03T03:17:43;61448.38;;;-147.04;54.32
39075;BME280;24826;52.070;20.970;2023-04-03T03:20:28;61454.34;;;-147.04;54.22
39075;BME280;24826;52.070;20.970;2023-04-03T03:23:12;61452.34;;;-147.04;53.97
39075;BME280;24826;52.070;20.970;2023-04-03T03:26:07;61434.44;;;-147.04;53.74
39075;BME280;24826;52.070;20.970;2023-04-03T03:28:51;61452.34;;;-147.04;53.87
39075;BME280;24826;52.070;20.970;2023-04-03T03:31:36;61428.47;;;-147.04;54.11
39075;BME280;24826;52.070;20.970;2023-04-03T03:34:20;61430.47;;;-147.04;54.44
39075;BME280;24826;52.070;20.970;2023-04-03T03:37:05;61454.34;;;-147.04;54.14
39075;BME280;24826;52.070;20.970;2023-04-03T03:39:49;61456.31;;;-147.04;54.38
39075;BME280;24826;52.070;20.970;2023-04-03T03:42:34;61468.25;;;-147.04;53.51
39075;BME280;24826;52.070;20.970;2023-04-03T03:45:18;61440.41;;;-147.04;55.42
39075;BME280;24826;52.070;20.970;2023-04-03T03:48:03;61444.41;;;-147.04;55.03
39075;BME280;24826;52.070;20.970;2023-04-03T03:50:48;61424.50;;;-147.04;54.82
39075;BME280;24826;52.070;20.970;2023-04-03T03:53:33;61452.34;;;-147.04;55.08
39075;BME280;24826;52.070;20.970;2023-04-03T03:56:18;61420.53;;;-147.04;54.68
39075;BME280;24826;52.070;20.970;2023-04-03T03:59:02;61470.25;;;-147.04;55.47
39075;BME280;24826;52.070;20.970;2023-04-03T04:01:46;61416.56;;;-147.04;55.35
39075;BME280;24826;52.070;20.970;2023-04-03T04:04:31;61432.47;;;-147.04;54.53
39075;BME280;24826;52.070;20.970;2023-04-03T04:07:16;61450.34;;;-147.04;55.36
39075;BME280;24826;52.070;20.970;2023-04-03T04:10:00;61462.28;;;-147.04;55.55
39075;BME280;24826;52.070;20.970;2023-04-03T04:12:45;61490.13;;;-147.04;55.37
39075;BME280;24826;52.070;20.970;2023-04-03T04:15:30;61488.13;;;-147.04;55.31
39075;BME280;24826;52.070;20.970;2023-04-03T04:18:15;61424.50;;;-147.04;54.78
39075;BME280;24826;52.070;20.970;2023-04-03T04:20:59;61444.41;;;-147.04;54.89
39075;BME280;24826;52.070;20.970;2023-04-03T04:23:44;61432.47;;;-147.04;55.56
39075;BME280;24826;52.070;20.970;2023-04-03T04:26:29;61579.59;;;-147.04;55.79
39075;BME280;24826;52.070;20.970;2023-04-03T04:29:13;61448.38;;;-147.04;55.94
39075;BME280;24826;52.070;20.970;2023-04-03T04:31:57;61428.47;;;-147.04;55.76
39075;BME280;24826;52.070;20.970;2023-04-03T04:34:42;61468.25;;;-147.04;55.72
39075;BME280;24826;52.070;20.970;2023-04-03T04:37:26;61430.47;;;-147.04;55.92
39075;BME280;24826;52.070;20.970;2023-04-03T04:40:11;61426.50;;;-147.04;55.97
39075;BME280;24826;52.070;20.970;2023-04-03T04:42:55;61424.50;;;-147.04;56.25
39075;BME280;24826;52.070;20.970;2023-04-03T04:45:40;61444.41;;;-147.04;55.94
39075;BME280;24826;52.070;20.970;2023-04-03T04:48:25;61438.44;;;-147.04;55.26
39075;BME280;24826;52.070;20.970;2023-04-03T04:51:10;61434.44;;;-147.04;55.13
39075;BME280;24826;52.070;20.970;2023-04-03T04:53:55;61434.44;;;-147.04;55.63
39075;BME280;24826;52.070;20.970;2023-04-03T04:56:39;61490.13;;;-147.04;56.05
39075;BME280;24826;52.070;20.970;2023-04-03T04:59:24;61460.31;;;-147.04;56.37
39075;BME280;24826;52.070;20.970;2023-04-03T05:02:08;61462.28;;;-147.04;55.05
39075;BME280;24826;52.070;20.970;2023-04-03T05:04:53;61496.09;;;-147.04;55.62
39075;BME280;24826;52.070;20.970;2023-04-03T05:07:37;61535.88;;;-147.04;55.80
39075;BME280;24826;52.070;20.970;2023-04-03T05:10:22;61480.19;;;-147.04;56.57
39075;BME280;24826;52.070;20.970;2023-04-03T05:13:06;61496.09;;;-147.04;56.60
39075;BME280;24826;52.070;20.970;2023-04-03T05:15:51;61488.13;;;-147.04;56.96
39075;BME280;24826;52.070;20.970;2023-04-03T05:18:35;61515.97;;;-147.04;57.56
39075;BME280;24826;52.070;20.970;2023-04-03T05:21:20;61661.13;;;-147.04;56.89
39075;BME280;24826;52.070;20.970;2023-04-03T05:24:07;61502.06;;;-147.04;56.82
39075;BME280;24826;52.070;20.970;2023-04-03T05:26:53;61545.81;;;-147.04;57.25
39075;BME280;24826;52.070;20.970;2023-04-03T05:29:37;61517.97;;;-147.04;57.18
39075;BME280;24826;52.070;20.970;2023-04-03T05:32:23;61506.03;;;-147.04;57.21
39075;BME280;24826;52.070;20.970;2023-04-03T05:35:08;61523.94;;;-147.04;56.59
39075;BME280;24826;52.070;20.970;2023-04-03T05:37:53;61535.88;;;-147.04;56.09
39075;BME280;24826;52.070;20.970;2023-04-03T05:40:37;61547.78;;;-147.04;55.87
39075;BME280;24826;52.070;20.970;2023-04-03T05:43:22;61543.81;;;-147.04;55.81
39075;BME280;24826;52.070;20.970;2023-04-03T05:46:17;61569.66;;;-147.04;56.02
39075;BME280;24826;52.070;20.970;2023-04-03T05:49:02;61537.84;;;-147.04;56.03
39075;BME280;24826;52.070;20.970;2023-04-03T05:51:46;61547.78;;;-147.04;55.20
39075;BME280;24826;52.070;20.970;2023-04-03T05:54:30;61496.09;;;-147.04;54.68
39075;BME280;24826;52.070;20.970;2023-04-03T05:57:15;61551.78;;;-147.04;53.97
39075;BME280;24826;52.070;20.970;2023-04-03T06:00:08;61551.78;;;-147.04;54.02
39075;BME280;24826;52.070;20.970;2023-04-03T06:02:56;61500.06;;;-147.04;53.33
39075;BME280;24826;52.070;20.970;2023-04-03T06:05:40;61605.47;;;-147.04;53.93
39075;BME280;24826;52.070;20.970;2023-04-03T06:08:25;61512.00;;;-147.04;53.49
39075;BME280;24826;52.070;20.970;2023-04-03T06:11:10;61543.81;;;-147.04;52.90
39075;BME280;24826;52.070;20.970;2023-04-03T06:13:54;61551.78;;;-147.04;52.12
39075;BME280;24826;52.070;20.970;2023-04-03T06:16:39;61527.91;;;-147.04;52.61
39075;BME280;24826;52.070;20.970;2023-04-03T06:19:23;61525.91;;;-147.04;51.87
39075;BME280;24826;52.070;20.970;2023-04-03T06:22:08;61533.88;;;-147.04;51.40
39075;BME280;24826;52.070;20.970;2023-04-03T06:24:52;61515.97;;;-147.04;50.14
39075;BME280;24826;52.070;20.970;2023-04-03T06:27:37;61442.41;;;-147.04;49.99
39075;BME280;24826;52.070;20.970;2023-04-03T06:30:22;61512.00;;;-147.04;47.96
39075;BME280;24826;52.070;20.970;2023-04-03T06:33:07;61525.91;;;-147.04;48.88
39075;BME280;24826;52.070;20.970;2023-04-03T06:35:56;61529.91;;;-147.04;48.41
39075;BME280;24826;52.070;20.970;2023-04-03T06:38:41;61515.97;;;-147.04;48.41
39075;BME280;24826;52.070;20.970;2023-04-03T06:41:25;61531.88;;;-147.04;48.98
39075;BME280;24826;52.070;20.970;2023-04-03T06:44:11;61464.28;;;-147.04;48.30
39075;BME280;24826;52.070;20.970;2023-04-03T06:46:57;61472.22;;;-147.04;47.11
39075;BME280;24826;52.070;20.970;2023-04-03T06:49:42;61521.94;;;-147.04;47.74
39075;BME280;24826;52.070;20.970;2023-04-03T06:52:26;61523.94;;;-147.04;48.19
39075;BME280;24826;52.070;20.970;2023-04-03T06:55:11;61498.09;;;-147.04;48.00
39075;BME280;24826;52.070;20.970;2023-04-03T06:57:56;61515.97;;;-147.04;47.30
39075;BME280;24826;52.070;20.970;2023-04-03T07:00:40;61508.03;;;-147.04;47.25
39075;BME280;24826;52.070;20.970;2023-04-03T07:03:25;61512.00;;;-147.04;47.38
39075;BME280;24826;52.070;20.970;2023-04-03T07:06:12;61508.03;;;-147.04;47.85
39075;BME280;24826;52.070;20.970;2023-04-03T07:08:56;61482.19;;;-147.04;47.56
39075;BME280;24826;52.070;20.970;2023-04-03T07:11:41;61488.13;;;-147.04;47.62
39075;BME280;24826;52.070;20.970;2023-04-03T07:14:25;61579.59;;;-147.04;46.24
39075;BME280;24826;52.070;20.970;2023-04-03T07:17:10;61535.88;;;-147.04;46.03
39075;BME280;24826;52.070;20.970;2023-04-03T07:19:54;61515.97;;;-147.04;46.19
39075;BME280;24826;52.070;20.970;2023-04-03T07:22:38;61512.00;;;-147.04;45.50
39075;BME280;24826;52.070;20.970;2023-04-03T07:25:23;61521.94;;;-147.04;46.09
39075;BME280;24826;52.070;20.970;2023-04-03T07:28:08;61527.91;;;-147.04;45.09
39075;BME280;24826;52.070;20.970;2023-04-03T07:30:59;61523.94;;;-147.04;44.45
39075;BME280;24826;52.070;20.970;2023-04-03T07:33:44;61490.13;;;-147.04;44.57
39075;BME280;24826;52.070;20.970;2023-04-03T07:36:29;61527.91;;;-147.04;43.49
39075;BME280;24826;52.070;20.970;2023-04-03T07:39:17;61527.91;;;-147.04;43.64
39075;BME280;24826;52.070;20.970;2023-04-03T07:42:01;61446.38;;;-147.04;43.67
39075;BME280;24826;52.070;20.970;2023-04-03T07:44:46;61567.69;;;-147.04;43.49
39075;BME280;24826;52.070;20.970;2023-04-03T07:47:30;61527.91;;;-147.04;43.43
39075;BME280;24826;52.070;20.970;2023-04-03T07:50:15;61543.81;;;-147.04;42.42
39075;BME280;24826;52.070;20.970;2023-04-03T07:53:00;61531.88;;;-147.04;41.82
39075;BME280;24826;52.070;20.970;2023-04-03T07:55:49;61529.91;;;-147.04;41.13
39075;BME280;24826;52.070;20.970;2023-04-03T07:58:35;61607.44;;;-147.04;40.22
39075;BME280;24826;52.070;20.970;2023-04-03T08:01:20;61579.59;;;-147.04;39.36
39075;BME280;24826;52.070;20.970;2023-04-03T08:04:04;61623.34;;;-147.04;38.54
39075;BME280;24826;52.070;20.970;2023-04-03T08:06:51;61589.56;;;-147.04;38.28
39075;BME280;24826;52.070;20.970;2023-04-03T08:09:36;61440.41;;;-147.04;37.90
39075;BME280;24826;52.070;20.970;2023-04-03T08:12:20;61621.38;;;-147.04;36.89
39075;BME280;24826;52.070;20.970;2023-04-03T08:15:06;61724.78;;;-147.04;35.66
39075;BME280;24826;52.070;20.970;2023-04-03T08:17:51;61647.22;;;-147.04;34.58
39075;BME280;24826;52.070;20.970;2023-04-03T08:20:35;61704.88;;;-147.04;33.54
39075;BME280;24826;52.070;20.970;2023-04-03T08:23:21;61663.13;;;-147.04;34.07
39075;BME280;24826;52.070;20.970;2023-04-03T08:26:10;61480.19;;;-147.04;34.19
39075;BME280;24826;52.070;20.970;2023-04-03T08:28:55;61768.53;;;-147.04;33.49
39075;BME280;24826;52.070;20.970;2023-04-03T08:31:40;61569.66;;;-147.04;33.95
39075;BME280;24826;52.070;20.970;2023-04-03T08:34:24;61738.69;;;-147.04;33.08
39075;BME280;24826;52.070;20.970;2023-04-03T08:37:09;61657.16;;;-147.04;33.11
39075;BME280;24826;52.070;20.970;2023-04-03T08:39:54;61599.50;;;-147.04;32.98
39075;BME280;24826;52.070;20.970;2023-04-03T08:45:53;61543.81;;;-147.04;32.23
39075;BME280;24826;52.070;20.970;2023-04-03T08:48:41;61627.34;;;-147.04;33.12
39075;BME280;24826;52.070;20.970;2023-04-03T08:51:28;61611.44;;;-147.04;33.70
39075;BME280;24826;52.070;20.970;2023-04-03T08:54:34;61476.22;;;-147.04;34.21
39075;BME280;24826;52.070;20.970;2023-04-03T08:57:30;61545.81;;;-147.04;34.04
39075;BME280;24826;52.070;20.970;2023-04-03T09:00:20;61679.03;;;-147.04;34.43
39075;BME280;24826;52.070;20.970;2023-04-03T09:03:05;61547.78;;;-147.04;34.96
39075;BME280;24826;52.070;20.970;2023-04-03T09:05:55;61514.00;;;-147.04;34.54
39075;BME280;24826;52.070;20.970;2023-04-03T09:09:07;61488.13;;;-147.04;34.59
39075;BME280;24826;52.070;20.970;2023-04-03T09:12:06;61597.50;;;-147.04;35.09
39075;BME280;24826;52.070;20.970;2023-04-03T09:21:05;61396.66;;;-147.04;35.22
39075;BME280;24826;52.070;20.970;2023-04-03T09:23:55;61514.00;;;-147.04;34.12
39075;BME280;24826;52.070;20.970;2023-04-03T09:27:01;61527.91;;;-147.04;33.22
39075;BME280;24826;52.070;20.970;2023-04-03T09:29:49;61573.66;;;-147.04;34.30
39075;BME280;24826;52.070;20.970;2023-04-03T09:32:37;61567.69;;;-147.04;34.41
39075;BME280;24826;52.070;20.970;2023-04-03T09:35:28;61444.41;;;-147.04;34.42
39075;BME280;24826;52.070;20.970;2023-04-03T09:38:17;61569.66;;;-147.04;33.92
39075;BME280;24826;52.070;20.970;2023-04-03T09:41:06;61547.78;;;-147.04;33.15
39075;BME280;24826;52.070;20.970;2023-04-03T09:43:53;61535.88;;;-147.04;32.72
39075;BME280;24826;52.070;20.970;2023-04-03T09:46:38;61420.53;;;-147.04;32.65
39075;BME280;24826;52.070;20.970;2023-04-03T09:49:23;61605.47;;;-147.04;32.01
39075;BME280;24826;52.070;20.970;2023-04-03T09:52:19;61472.22;;;-147.04;32.04
39075;BME280;24826;52.070;20.970;2023-04-03T09:55:17;61521.94;;;-147.04;32.39
39075;BME280;24826;52.070;20.970;2023-04-03T09:58:04;61500.06;;;-147.04;32.86
39075;BME280;24826;52.070;20.970;2023-04-03T10:00:57;61466.25;;;-147.04;32.67
39075;BME280;24826;52.070;20.970;2023-04-03T10:03:42;61452.34;;;-147.04;33.01
39075;BME280;24826;52.070;20.970;2023-04-03T10:06:32;61464.28;;;-147.04;31.99
39075;BME280;24826;52.070;20.970;2023-04-03T10:09:26;61456.31;;;-147.04;32.34
39075;BME280;24826;52.070;20.970;2023-04-03T10:12:12;61462.28;;;-147.04;32.36
39075;BME280;24826;52.070;20.970;2023-04-03T10:15:00;61454.34;;;-147.04;32.06
39075;BME280;24826;52.070;20.970;2023-04-03T10:18:00;61446.38;;;-147.04;32.74
39075;BME280;24826;52.070;20.970;2023-04-03T10:20:48;61436.44;;;-147.04;33.15
39075;BME280;24826;52.070;20.970;2023-04-03T10:23:50;61500.06;;;-147.04;33.64
39075;BME280;24826;52.070;20.970;2023-04-03T10:26:51;61476.22;;;-147.04;32.52
39075;BME280;24826;52.070;20.970;2023-04-03T10:35:44;61444.41;;;-147.04;32.62
39075;BME280;24826;52.070;20.970;2023-04-03T10:45:39;61436.44;;;-147.04;32.18
39075;BME280;24826;52.070;20.970;2023-04-03T10:51:48;61450.34;;;-147.04;32.00
39075;BME280;24826;52.070;20.970;2023-04-03T10:54:46;61416.56;;;-147.04;32.67
39075;BME280;24826;52.070;20.970;2023-04-03T10:57:34;61430.47;;;-147.04;32.15
39075;BME280;24826;52.070;20.970;2023-04-03T11:00:21;61438.44;;;-147.04;32.54
39075;BME280;24826;52.070;20.970;2023-04-03T11:03:13;61412.56;;;-147.04;32.69
39075;BME280;24826;52.070;20.970;2023-04-03T11:06:02;61496.09;;;-147.04;32.12
39075;BME280;24826;52.070;20.970;2023-04-03T11:09:05;61500.06;;;-147.04;31.57
39075;BME280;24826;52.070;20.970;2023-04-03T11:12:00;61494.09;;;-147.04;32.50
39075;BME280;24826;52.070;20.970;2023-04-03T11:14:47;61390.72;;;-147.04;32.10
39075;BME280;24826;52.070;20.970;2023-04-03T11:17:45;61448.38;;;-147.04;32.49
39075;BME280;24826;52.070;20.970;2023-04-03T11:20:35;61412.56;;;-147.04;32.96
39075;BME280;24826;52.070;20.970;2023-04-03T11:23:25;61434.44;;;-147.04;33.20
39075;BME280;24826;52.070;20.970;2023-04-03T11:26:15;61464.28;;;-147.04;33.31
39075;BME280;24826;52.070;20.970;2023-04-03T11:29:05;61428.47;;;-147.04;32.44
39075;BME280;24826;52.070;20.970;2023-04-03T11:34:44;61541.81;;;-147.04;32.65
39075;BME280;24826;52.070;20.970;2023-04-03T11:40:26;61440.41;;;-147.04;32.39
39075;BME280;24826;52.070;20.970;2023-04-03T11:46:06;61591.53;;;-147.04;31.89
39075;BME280;24826;52.070;20.970;2023-04-03T11:48:51;61476.22;;;-147.04;31.41
39075;BME280;24826;52.070;20.970;2023-04-03T11:51:40;61508.03;;;-147.04;31.72
39075;BME280;24826;52.070;20.970;2023-04-03T12:08:57;61420.53;;;-147.04;31.46
39075;BME280;24826;52.070;20.970;2023-04-03T12:11:42;61436.44;;;-147.04;31.23
39075;BME280;24826;52.070;20.970;2023-04-03T12:14:28;61456.31;;;-147.04;31.41
39075;BME280;24826;52.070;20.970;2023-04-03T12:17:22;61476.22;;;-147.04;31.38
39075;BME280;24826;52.070;20.970;2023-04-03T12:27:14;61424.50;;;-147.04;31.69
39075;BME280;24826;52.070;20.970;2023-04-03T12:33:04;61482.19;;;-147.04;31.34
39075;BME280;24826;52.070;20.970;2023-04-03T12:36:08;61440.41;;;-147.04;31.15
39075;BME280;24826;52.070;20.970;2023-04-03T12:42:11;61432.47;;;-147.04;32.09
39075;BME280;24826;52.070;20.970;2023-04-03T12:45:17;61416.56;;;-147.04;31.42
39075;BME280;24826;52.070;20.970;2023-04-03T12:48:06;61404.63;;;-147.04;31.58
39075;BME280;24826;52.070;20.970;2023-04-03T12:50:57;61506.03;;;-147.04;32.15
39075;BME280;24826;52.070;20.970;2023-04-03T12:53:43;61420.53;;;-147.04;31.75
39075;BME280;24826;52.070;20.970;2023-04-03T12:56:30;61424.50;;;-147.04;31.77
39075;BME280;24826;52.070;20.970;2023-04-03T12:59:26;61430.47;;;-147.04;32.58
39075;BME280;24826;52.070;20.970;2023-04-03T13:02:31;61428.47;;;-147.04;32.10
39075;BME280;24826;52.070;20.970;2023-04-03T13:05:18;61412.56;;;-147.04;31.53
39075;BME280;24826;52.070;20.970;2023-04-03T13:08:09;61418.53;;;-147.04;31.74
39075;BME280;24826;52.070;20.970;2023-04-03T13:11:05;61428.47;;;-147.04;31.89
39075;BME280;24826;52.070;20.970;2023-04-03T13:14:01;61426.50;;;-147.04;31.67
39075;BME280;24826;52.070;20.970;2023-04-03T13:19:49;61404.63;;;-147.04;32.18
39075;BME280;24826;52.070;20.970;2023-04-03T13:23:02;61358.88;;;-147.04;32.44
39075;BME280;24826;52.070;20.970;2023-04-03T13:25:49;61396.66;;;-147.04;32.50
39075;BME280;24826;52.070;20.970;2023-04-03T13:28:34;61390.72;;;-147.04;32.55
39075;BME280;24826;52.070;20.970;2023-04-03T13:31:25;61380.75;;;-147.04;32.71
39075;BME280;24826;52.070;20.970;2023-04-03T13:34:12;61384.75;;;-147.04;33.07
39075;BME280;24826;52.070;20.970;2023-04-03T13:37:00;61362.88;;;-147.04;32.03
39075;BME280;24826;52.070;20.970;2023-04-03T13:39:45;61388.72;;;-147.04;32.07
39075;BME280;24826;52.070;20.970;2023-04-03T13:42:41;61386.72;;;-147.04;31.81
39075;BME280;24826;52.070;20.970;2023-04-03T13:45:30;61400.66;;;-147.04;33.02
39075;BME280;24826;52.070;20.970;2023-04-03T13:48:18;61404.63;;;-147.04;32.68
39075;BME280;24826;52.070;20.970;2023-04-03T13:51:06;61420.53;;;-147.04;32.23
39075;BME280;24826;52.070;20.970;2023-04-03T13:54:00;61394.69;;;-147.04;32.56
39075;BME280;24826;52.070;20.970;2023-04-03T13:56:45;61378.78;;;-147.04;32.66
39075;BME280;24826;52.070;20.970;2023-04-03T13:59:33;61502.06;;;-147.04;32.79
39075;BME280;24826;52.070;20.970;2023-04-03T14:02:29;61384.75;;;-147.04;33.60
39075;BME280;24826;52.070;20.970;2023-04-03T14:05:15;61392.69;;;-147.04;33.57
39075;BME280;24826;52.070;20.970;2023-04-03T14:08:00;61372.81;;;-147.04;33.28
39075;BME280;24826;52.070;20.970;2023-04-03T14:10:46;61404.63;;;-147.04;32.56
39075;BME280;24826;52.070;20.970;2023-04-03T14:13:32;61390.72;;;-147.04;32.77
39075;BME280;24826;52.070;20.970;2023-04-03T14:16:23;61531.88;;;-147.04;32.81
39075;BME280;24826;52.070;20.970;2023-04-03T14:19:17;61408.59;;;-147.04;33.13
39075;BME280;24826;52.070;20.970;2023-04-03T14:22:32;61366.84;;;-147.04;33.57
39075;BME280;24826;52.070;20.970;2023-04-03T14:25:17;61382.75;;;-147.04;33.57
39075;BME280;24826;52.070;20.970;2023-04-03T14:28:14;61412.56;;;-147.04;32.82
39075;BME280;24826;52.070;20.970;2023-04-03T14:30:59;61358.88;;;-147.04;33.41
39075;BME280;24826;52.070;20.970;2023-04-03T14:33:45;61378.78;;;-147.04;33.12
39075;BME280;24826;52.070;20.970;2023-04-03T14:36:29;61374.78;;;-147.04;33.13
39075;BME280;24826;52.070;20.970;2023-04-03T14:39:18;61352.94;;;-147.04;33.84
39075;BME280;24826;52.070;20.970;2023-04-03T14:42:02;61382.75;;;-147.04;33.69
39075;BME280;24826;52.070;20.970;2023-04-03T14:44:48;61364.84;;;-147.04;34.01
39075;BME280;24826;52.070;20.970;2023-04-03T14:47:32;61360.88;;;-147.04;33.81
39075;BME280;24826;52.070;20.970;2023-04-03T14:50:21;61390.72;;;-147.04;33.08
39075;BME280;24826;52.070;20.970;2023-04-03T14:53:05;61333.03;;;-147.04;33.36
39075;BME280;24826;52.070;20.970;2023-04-03T14:55:50;61404.63;;;-147.04;32.91
39075;BME280;24826;52.070;20.970;2023-04-03T14:58:35;61356.91;;;-147.04;33.66
39075;BME280;24826;52.070;20.970;2023-04-03T15:01:20;61364.84;;;-147.04;33.55
39075;BME280;24826;52.070;20.970;2023-04-03T15:04:13;61396.66;;;-147.04;33.58
39075;BME280;24826;52.070;20.970;2023-04-03T15:06:58;61356.91;;;-147.04;33.07
39075;BME280;24826;52.070;20.970;2023-04-03T15:09:43;61333.03;;;-147.04;34.00
39075;BME280;24826;52.070;20.970;2023-04-03T15:12:28;61307.19;;;-147.04;33.96
39075;BME280;24826;52.070;20.970;2023-04-03T15:15:13;61364.84;;;-147.04;33.72
39075;BME280;24826;52.070;20.970;2023-04-03T15:17:58;61364.84;;;-147.04;34.06